createdAt,value
2023-03-03T00:01:07.630Z,101194.19
2023-03-03T00:04:12.096Z,101192.75
2023-03-03T00:07:22.408Z,101199.19
2023-03-03T00:10:26.332Z,101194.00
2023-03-03T00:13:33.410Z,101190.22
2023-03-03T00:16:40.254Z,101193.81
2023-03-03T00:19:47.955Z,101190.94
2023-03-03T00:22:52.198Z,101201.69
2023-03-03T00:25:57.607Z,101194.75
2023-03-03T00:29:02.852Z,101181.91
2023-03-03T00:32:26.829Z,101194.97
2023-03-03T00:35:39.419Z,101193.72
2023-03-03T00:38:45.120Z,101200.03
2023-03-03T00:41:50.518Z,101209.19
2023-03-03T00:45:01.528Z,101208.69
2023-03-03T00:48:28.593Z,101202.63
2023-03-03T00:51:37.798Z,101197.56
2023-03-03T00:54:42.081Z,101200.84
2023-03-03T00:57:46.389Z,101211.28
2023-03-03T01:00:55.686Z,101184.72
2023-03-03T01:04:05.818Z,101182.50
2023-03-03T01:07:10.181Z,101180.75
2023-03-03T01:10:14.276Z,101198.75
2023-03-03T01:13:19.354Z,101197.56
2023-03-03T01:16:23.789Z,101206.03
2023-03-03T01:19:28.216Z,101208.09
2023-03-03T01:22:32.526Z,101206.94
2023-03-03T01:25:37.365Z,101192.19
2023-03-03T01:28:42.780Z,101205.03
2023-03-03T01:31:47.199Z,101209.41
2023-03-03T01:34:51.315Z,101207.38
2023-03-03T01:37:55.228Z,101216.09
2023-03-03T01:41:01.410Z,101208.44
2023-03-03T01:44:05.913Z,101208.00
2023-03-03T01:47:15.736Z,101177.63
2023-03-03T01:50:37.559Z,101199.06
2023-03-03T01:53:47.555Z,101213.81
2023-03-03T01:56:56.877Z,101209.97
2023-03-03T02:00:03.715Z,101207.97
2023-03-03T02:03:16.454Z,101206.75
2023-03-03T02:06:28.863Z,101204.19
2023-03-03T02:10:00.754Z,101216.56
2023-03-03T02:13:06.374Z,101214.88
2023-03-03T02:16:10.452Z,101209.66
2023-03-03T02:19:28.514Z,101203.56
2023-03-03T02:23:11.569Z,101232.91
2023-03-03T02:26:26.474Z,101238.81
2023-03-03T02:29:36.132Z,101250.25
2023-03-03T02:32:42.756Z,101247.06
2023-03-03T02:35:47.081Z,101247.44
2023-03-03T02:38:55.691Z,101257.84
2023-03-03T02:42:12.031Z,101258.38
2023-03-03T02:45:30.210Z,101256.22
2023-03-03T02:48:34.134Z,101264.91
2023-03-03T02:51:38.903Z,101258.28
2023-03-03T02:54:43.266Z,101254.66
2023-03-03T02:57:47.752Z,101266.88
2023-03-03T03:00:52.286Z,101253.50
2023-03-03T03:04:00.067Z,101259.09
2023-03-03T03:07:05.246Z,101210.09
2023-03-03T03:10:12.946Z,101269.34
2023-03-03T03:13:19.145Z,101268.25
2023-03-03T03:16:23.879Z,101249.28
2023-03-03T03:19:29.056Z,101262.16
2023-03-03T03:22:36.518Z,101275.22
2023-03-03T03:25:47.429Z,101253.47
2023-03-03T03:28:59.298Z,101283.97
2023-03-03T03:32:03.975Z,101261.91
2023-03-03T03:35:08.236Z,101289.03
2023-03-03T03:38:13.446Z,101260.66
2023-03-03T03:41:18.650Z,101276.84
2023-03-03T03:44:24.887Z,101278.84
2023-03-03T03:47:30.414Z,101287.44
2023-03-03T03:50:35.619Z,101280.84
2023-03-03T03:53:40.094Z,101280.50
2023-03-03T03:56:44.132Z,101261.88
2023-03-03T03:59:50.467Z,101283.38
2023-03-03T04:02:55.677Z,101277.66
2023-03-03T04:06:00.957Z,101270.56
2023-03-03T04:09:05.394Z,101277.91
2023-03-03T04:12:10.812Z,101265.69
2023-03-03T04:15:16.457Z,101271.06
2023-03-03T04:18:21.294Z,101287.69
2023-03-03T04:21:26.082Z,101289.69
2023-03-03T04:24:32.100Z,101295.06
2023-03-03T04:27:38.109Z,101287.25
2023-03-03T04:30:42.369Z,101294.09
2023-03-03T04:33:46.161Z,101287.84
2023-03-03T04:36:50.431Z,101283.94
2023-03-03T04:39:55.246Z,101294.34
2023-03-03T04:42:59.724Z,101306.19
2023-03-03T04:46:04.198Z,101303.16
2023-03-03T04:49:12.307Z,101312.53
2023-03-03T04:52:19.338Z,101307.59
2023-03-03T04:55:24.178Z,101311.34
2023-03-03T04:58:29.014Z,101322.44
2023-03-03T05:01:33.165Z,101327.03
2023-03-03T05:04:38.254Z,101324.00
2023-03-03T05:07:42.207Z,101277.72
2023-03-03T05:10:46.136Z,101335.16
2023-03-03T05:13:50.621Z,101341.19
2023-03-03T05:16:54.845Z,101344.38
2023-03-03T05:19:59.423Z,101344.72
2023-03-03T05:23:05.070Z,101355.22
2023-03-03T05:26:09.607Z,101362.00
2023-03-03T05:29:13.946Z,101362.50
2023-03-03T05:32:18.762Z,101371.69
2023-03-03T05:35:23.051Z,101377.94
2023-03-03T05:38:27.745Z,101378.56
2023-03-03T05:41:32.062Z,101378.25
2023-03-03T05:44:36.495Z,101381.59
2023-03-03T05:47:40.790Z,101396.22
2023-03-03T05:50:44.990Z,101393.44
2023-03-03T05:53:49.552Z,101398.56
2023-03-03T05:56:58.203Z,101402.06
2023-03-03T06:00:01.928Z,101409.25
2023-03-03T06:03:16.004Z,101413.31
2023-03-03T06:06:20.416Z,101408.44
2023-03-03T06:09:25.073Z,101413.94
2023-03-03T06:12:29.438Z,101414.97
2023-03-03T06:15:33.731Z,101425.09
2023-03-03T06:18:38.208Z,101428.19
2023-03-03T06:21:42.870Z,101429.28
2023-03-03T06:24:47.427Z,101445.69
2023-03-03T06:27:51.828Z,101433.56
2023-03-03T06:30:56.877Z,101449.16
2023-03-03T06:34:02.908Z,101450.22
2023-03-03T06:37:07.986Z,101452.16
2023-03-03T06:40:12.509Z,101462.75
2023-03-03T06:43:17.557Z,101433.66
2023-03-03T06:46:21.902Z,101469.59
2023-03-03T06:49:25.951Z,101479.41
2023-03-03T06:52:30.343Z,101477.88
2023-03-03T06:55:34.697Z,101480.88
2023-03-03T06:58:38.972Z,101487.19
2023-03-03T07:01:44.358Z,101471.31
2023-03-03T07:04:49.022Z,101496.59
2023-03-03T07:07:53.491Z,101493.41
2023-03-03T07:11:02.432Z,101500.28
2023-03-03T07:14:15.333Z,101505.09
2023-03-03T07:17:21.848Z,101529.84
2023-03-03T07:20:35.885Z,101520.97
2023-03-03T07:23:44.545Z,101524.28
2023-03-03T07:26:48.961Z,101530.34
2023-03-03T07:29:57.122Z,101534.94
2023-03-03T07:33:01.817Z,101539.50
2023-03-03T07:36:23.713Z,101527.22
2023-03-03T07:39:39.071Z,101541.31
2023-03-03T07:42:45.176Z,101559.38
2023-03-03T07:46:04.606Z,101560.38
2023-03-03T07:49:37.656Z,101560.06
2023-03-03T07:52:45.632Z,101576.50
2023-03-03T07:55:50.676Z,101572.13
2023-03-03T07:58:57.048Z,101563.47
2023-03-03T08:02:02.372Z,101590.97
2023-03-03T08:05:34.847Z,101595.00
2023-03-03T08:08:39.202Z,101553.88
2023-03-03T08:12:15.272Z,101616.44
2023-03-03T08:15:29.459Z,101609.09
2023-03-03T08:18:39.757Z,101620.44
2023-03-03T08:21:43.621Z,101600.53
2023-03-03T08:24:49.073Z,101633.16
2023-03-03T08:27:53.098Z,101643.47
2023-03-03T08:31:12.990Z,101626.88
2023-03-03T08:34:22.511Z,101653.53
2023-03-03T08:37:26.333Z,101622.59
2023-03-03T08:40:30.642Z,101651.34
2023-03-03T08:43:36.012Z,101650.72
2023-03-03T08:46:40.451Z,101640.97
2023-03-03T08:49:44.891Z,101644.72
2023-03-03T08:52:49.197Z,101665.06
2023-03-03T08:55:53.484Z,101660.91
2023-03-03T08:59:02.616Z,101645.91
2023-03-03T09:02:08.340Z,101685.06
2023-03-03T09:05:13.257Z,101683.16
2023-03-03T09:08:17.021Z,101694.59
2023-03-03T09:11:29.015Z,101705.81
2023-03-03T09:14:33.090Z,101708.78
2023-03-03T09:17:39.384Z,101723.47
2023-03-03T09:20:48.948Z,101727.22
2023-03-03T09:23:57.585Z,101732.50
2023-03-03T09:27:02.407Z,101722.94
2023-03-03T09:30:32.145Z,101731.88
2023-03-03T09:33:50.602Z,101719.47
2023-03-03T09:36:57.504Z,101731.00
2023-03-03T09:40:01.748Z,101741.06
2023-03-03T09:43:24.972Z,101718.94
2023-03-03T09:47:03.714Z,101755.69
2023-03-03T09:50:22.724Z,101755.94
2023-03-03T09:54:03.798Z,101754.56
2023-03-03T09:57:23.528Z,101769.72
2023-03-03T10:00:48.956Z,101769.84
2023-03-03T10:04:21.700Z,101766.59
2023-03-03T10:08:14.550Z,101774.16
2023-03-03T10:11:36.721Z,101774.56
2023-03-03T10:14:41.445Z,101791.94
2023-03-03T10:17:55.294Z,101791.28
2023-03-03T10:21:05.875Z,101794.53
2023-03-03T10:24:29.046Z,101780.75
2023-03-03T10:28:00.746Z,101738.88
2023-03-03T10:31:28.910Z,101797.69
2023-03-03T10:35:10.742Z,101805.00
2023-03-03T10:38:56.261Z,101758.84
2023-03-03T10:42:03.797Z,101807.41
2023-03-03T10:45:28.762Z,101828.38
2023-03-03T10:49:10.501Z,101807.91
2023-03-03T10:52:32.573Z,101825.00
2023-03-03T10:55:42.695Z,101819.06
2023-03-03T10:58:47.268Z,101819.22
2023-03-03T11:02:08.256Z,101820.31
2023-03-03T11:05:31.438Z,101830.47
2023-03-03T11:09:00.880Z,101833.22
2023-03-03T11:12:48.439Z,101840.28
2023-03-03T11:16:07.729Z,101837.28
2023-03-03T11:19:35.471Z,101840.59
2023-03-03T11:22:55.526Z,101845.38
2023-03-03T11:26:29.532Z,101847.28
2023-03-03T11:29:55.049Z,101851.81
2023-03-03T11:33:11.046Z,101842.94
2023-03-03T11:36:18.339Z,101850.19
2023-03-03T11:39:29.838Z,101858.81
2023-03-03T11:43:20.641Z,101853.66
2023-03-03T11:46:51.042Z,101850.59
2023-03-03T11:50:01.433Z,101835.31
2023-03-03T11:53:38.260Z,101868.72
2023-03-03T11:56:45.685Z,101867.00
2023-03-03T12:00:01.510Z,101872.09
2023-03-03T12:04:02.363Z,101872.66
2023-03-03T12:07:22.274Z,101696.78
2023-03-03T12:10:56.361Z,101879.72
2023-03-03T12:14:27.256Z,101884.72
2023-03-03T12:17:56.446Z,101795.50
2023-03-03T12:21:06.823Z,101881.44
2023-03-03T12:24:44.573Z,101898.91
2023-03-03T12:28:18.873Z,101894.13
2023-03-03T12:31:46.773Z,101896.25
2023-03-03T12:35:04.945Z,101880.16
2023-03-03T12:38:29.000Z,101885.75
2023-03-03T12:41:35.064Z,101904.47
2023-03-03T12:45:12.784Z,101905.03
2023-03-03T12:48:39.601Z,101914.81
2023-03-03T12:51:53.129Z,101897.84
2023-03-03T12:55:35.740Z,101910.72
2023-03-03T12:58:46.092Z,101912.50
2023-03-03T13:02:09.209Z,101910.50
2023-03-03T13:05:45.937Z,101914.06
2023-03-03T13:09:04.314Z,101908.78
2023-03-03T13:12:14.565Z,101919.97
2023-03-03T13:15:34.966Z,101906.91
2023-03-03T13:19:03.827Z,101902.47
2023-03-03T13:22:19.290Z,101894.75
2023-03-03T13:25:51.859Z,101888.75
2023-03-03T13:29:12.148Z,101916.09
2023-03-03T13:32:22.216Z,101914.28
2023-03-03T13:35:50.306Z,101918.66
2023-03-03T13:38:59.073Z,101903.31
2023-03-03T13:42:17.344Z,101916.16
2023-03-03T13:45:43.492Z,101920.41
2023-03-03T13:49:04.689Z,101924.53
2023-03-03T13:52:26.273Z,101906.72
2023-03-03T13:55:35.341Z,101919.41
2023-03-03T13:59:06.570Z,101926.72
2023-03-03T14:03:01.553Z,101934.81
2023-03-03T14:06:14.254Z,101937.88
2023-03-03T14:09:55.135Z,101936.66
2023-03-03T14:13:18.520Z,101940.75
2023-03-03T14:16:57.785Z,101941.78
2023-03-03T14:20:24.967Z,101942.59
2023-03-03T14:23:51.317Z,101935.19
2023-03-03T14:26:59.267Z,101879.66
2023-03-03T14:30:44.964Z,101953.44
2023-03-03T14:34:14.809Z,101955.41
2023-03-03T14:37:26.344Z,101948.66
2023-03-03T14:40:35.497Z,101953.00
2023-03-03T14:43:42.677Z,101952.25
2023-03-03T14:47:06.845Z,101950.25
2023-03-03T14:50:30.906Z,101951.97
2023-03-03T14:53:44.755Z,101946.84
2023-03-03T14:57:16.367Z,101940.53
2023-03-03T15:00:24.197Z,101947.91
2023-03-03T15:03:29.746Z,101943.16
2023-03-03T15:06:39.731Z,101945.63
2023-03-03T15:09:51.362Z,101948.66
2023-03-03T15:12:55.939Z,101951.44
2023-03-03T15:16:32.529Z,101951.31
2023-03-03T15:19:45.746Z,101952.63
2023-03-03T15:23:11.457Z,101963.31
2023-03-03T15:26:28.688Z,101961.34
2023-03-03T15:29:33.466Z,101960.28
2023-03-03T15:33:13.792Z,101919.47
2023-03-03T15:36:49.084Z,101961.06
2023-03-03T15:39:55.950Z,101963.56
2023-03-03T15:43:26.236Z,101962.38
2023-03-03T15:46:34.001Z,101959.66
2023-03-03T15:50:07.518Z,101964.78
2023-03-03T15:54:06.337Z,101946.75
2023-03-03T15:57:32.324Z,101947.31
2023-03-03T16:00:49.886Z,101958.00
2023-03-03T16:03:58.055Z,101944.75
2023-03-03T16:07:26.856Z,101954.81
2023-03-03T16:10:53.461Z,101967.03
2023-03-03T16:14:18.489Z,101976.25
2023-03-03T16:17:31.368Z,101971.22
2023-03-03T16:21:03.186Z,101988.00
2023-03-03T16:24:23.171Z,101987.03
2023-03-03T16:27:30.571Z,101986.00
2023-03-03T16:31:13.746Z,101967.38
2023-03-03T16:34:27.363Z,101989.31
2023-03-03T16:37:40.877Z,102000.09
2023-03-03T16:40:55.432Z,101995.25
2023-03-03T16:44:31.860Z,101995.75
2023-03-03T16:47:46.139Z,102002.41
2023-03-03T16:51:05.801Z,102002.63
2023-03-03T16:54:34.527Z,101989.72
2023-03-03T16:57:52.183Z,102006.06
2023-03-03T17:01:26.325Z,102006.13
2023-03-03T17:04:45.456Z,101998.88
2023-03-03T17:08:04.670Z,101993.28
2023-03-03T17:11:44.251Z,101998.75
2023-03-03T17:15:08.639Z,102005.78
2023-03-03T17:18:40.120Z,102012.63
2023-03-03T17:22:29.208Z,102004.44
2023-03-03T17:25:51.698Z,102009.97
2023-03-03T17:29:28.722Z,102011.41
2023-03-03T17:33:00.870Z,101997.91
2023-03-03T17:36:28.397Z,102005.09
2023-03-03T17:39:32.745Z,102000.28
2023-03-03T17:43:03.297Z,102006.47
2023-03-03T17:46:20.539Z,102010.38
2023-03-03T17:49:36.777Z,102015.31
2023-03-03T17:52:58.778Z,102012.59
2023-03-03T17:56:03.157Z,102014.84
2023-03-03T17:59:45.812Z,102016.22
2023-03-03T18:02:53.242Z,102021.03
2023-03-03T18:06:18.348Z,102026.75
2023-03-03T18:09:31.628Z,102030.97
2023-03-03T18:12:56.073Z,102026.31
2023-03-03T18:16:12.702Z,102032.13
2023-03-03T18:19:32.020Z,102009.78
2023-03-03T18:22:49.671Z,102031.88
2023-03-03T18:26:04.731Z,102035.16
2023-03-03T18:29:29.309Z,102042.66
2023-03-03T18:32:57.354Z,102051.06
2023-03-03T18:36:40.088Z,101997.94
2023-03-03T18:39:53.541Z,102038.75
2023-03-03T18:42:58.204Z,102054.50
2023-03-03T18:46:05.512Z,102047.63
2023-03-03T18:49:14.002Z,102055.56
2023-03-03T18:52:26.553Z,102045.06
2023-03-03T18:55:41.343Z,102054.81
2023-03-03T18:58:46.425Z,102049.41
2023-03-03T19:01:52.723Z,102052.56
2023-03-03T19:04:58.153Z,102050.59
2023-03-03T19:08:17.665Z,102062.94
2023-03-03T19:11:35.979Z,102072.66
2023-03-03T19:14:49.610Z,102068.88
2023-03-03T19:17:58.886Z,102066.34
2023-03-03T19:21:07.612Z,102075.53
2023-03-03T19:24:24.308Z,102081.41
2023-03-03T19:27:45.133Z,102081.41
2023-03-03T19:30:59.386Z,102086.88
2023-03-03T19:34:22.274Z,102090.25
2023-03-03T19:37:43.573Z,102088.50
2023-03-03T19:41:10.513Z,102053.72
2023-03-03T19:44:33.064Z,102096.06
2023-03-03T19:47:40.681Z,102090.63
2023-03-03T19:51:24.317Z,102099.44
2023-03-03T19:54:51.133Z,102103.06
2023-03-03T19:58:23.208Z,102111.53
2023-03-03T20:01:51.799Z,102102.09
2023-03-03T20:04:59.160Z,102105.41
2023-03-03T20:08:41.258Z,102103.91
2023-03-03T20:12:22.326Z,102102.97
2023-03-03T20:15:48.618Z,102112.88
2023-03-03T20:19:09.080Z,102106.44
2023-03-03T20:22:19.184Z,102116.09
2023-03-03T20:25:32.215Z,102118.50
2023-03-03T20:28:45.440Z,102122.72
2023-03-03T20:32:24.505Z,102129.13
2023-03-03T20:35:40.778Z,102115.97
2023-03-03T20:39:08.426Z,102104.91
2023-03-03T20:42:52.946Z,102121.81
2023-03-03T20:46:13.822Z,102131.53
2023-03-03T20:49:39.571Z,102136.13
2023-03-03T20:52:52.343Z,102137.28
2023-03-03T20:55:56.635Z,102129.31
2023-03-03T20:59:17.223Z,102100.72
2023-03-03T21:03:07.046Z,102117.31
2023-03-03T21:06:22.065Z,102106.47
2023-03-03T21:09:34.186Z,102134.81
2023-03-03T21:12:44.102Z,102141.81
2023-03-03T21:16:06.247Z,102140.75
2023-03-03T21:19:25.998Z,102098.56
2023-03-03T21:22:30.307Z,102145.44
2023-03-03T21:25:54.482Z,102153.38
2023-03-03T21:29:03.677Z,102126.06
2023-03-03T21:32:34.140Z,102092.66
2023-03-03T21:35:59.633Z,102147.47
2023-03-03T21:39:25.258Z,102152.75
2023-03-03T21:42:46.057Z,102156.19
2023-03-03T21:45:50.079Z,102157.00
2023-03-03T21:48:54.359Z,102143.66
2023-03-03T21:51:59.653Z,102159.13
2023-03-03T21:55:03.583Z,102156.38
2023-03-03T21:58:07.552Z,102156.59
2023-03-03T22:01:12.089Z,102150.84
2023-03-03T22:04:16.073Z,102157.97
2023-03-03T22:07:19.843Z,102158.16
2023-03-03T22:10:24.351Z,102158.41
2023-03-03T22:13:30.260Z,102163.31
2023-03-03T22:16:35.678Z,102165.06
2023-03-03T22:19:39.646Z,102168.25
2023-03-03T22:22:44.365Z,102168.06
2023-03-03T22:25:48.672Z,102159.03
2023-03-03T22:28:52.618Z,102143.53
2023-03-03T22:31:56.600Z,102161.03
2023-03-03T22:35:00.849Z,102160.16
2023-03-03T22:38:05.915Z,102165.50
2023-03-03T22:41:09.996Z,102164.63
2023-03-03T22:44:14.245Z,102155.81
2023-03-03T22:47:18.676Z,102126.72
2023-03-03T22:50:23.015Z,102161.72
2023-03-03T22:53:27.852Z,102162.94
2023-03-03T22:56:32.117Z,102154.00
2023-03-03T22:59:36.662Z,102163.63
2023-03-03T23:02:42.933Z,102168.06
2023-03-03T23:05:49.042Z,102168.44
2023-03-03T23:08:55.443Z,102171.41
2023-03-03T23:12:00.216Z,102182.56
2023-03-03T23:15:07.296Z,102185.97
2023-03-03T23:18:11.838Z,102190.53
2023-03-03T23:21:16.009Z,102148.06
2023-03-03T23:24:19.868Z,102196.97
2023-03-03T23:27:24.501Z,102214.53
2023-03-03T23:30:28.438Z,102211.91
2023-03-03T23:33:32.676Z,102215.91
2023-03-03T23:36:36.536Z,102226.69
2023-03-03T23:39:41.936Z,102211.78
2023-03-03T23:42:46.746Z,102221.66
2023-03-03T23:45:50.628Z,102216.41
2023-03-03T23:48:54.604Z,102220.53
2023-03-03T23:51:58.542Z,102223.56
2023-03-03T23:55:02.937Z,102222.84
2023-03-03T23:58:07.348Z,102224.09
